Abenra, Denmark
Current Conditions -  °F | °C
As of 8:20 AM on Saturday 29 Nov 2014 (Local Time) from EKSP Reporting Station
Broken Clouds Broken Clouds  
Wind Chill: 24°   Ceiling: 1500
Heat Index: 34°   Visibility: 5mi
Dew Point: 28°   Wind: 15mph
Humidity: 81%   Direction: 90°E
Pressure: 30.21"   Gusts: NA
Location:  55.04°N, 9.42°E
Report Text: EKSP 290720Z 09013KT 060V120 8000 BKN015 01/M02 Q1023
Loading
Personal Weather Stations






























Interactive Weather Map New forecast layout! Learn more

10-Day Weather Forecast

Advertisements
Track Severe Weather on mobile